createdAt,value
2019-05-07T00:00:48.530Z,8.00
2019-05-07T00:11:43.504Z,8.40
2019-05-07T00:17:05.203Z,8.53
2019-05-07T00:22:24.828Z,8.90
2019-05-07T00:27:29.357Z,8.50
2019-05-07T00:32:37.801Z,10.60
2019-05-07T00:37:44.345Z,8.53
2019-05-07T00:43:05.552Z,10.53
2019-05-07T00:48:09.240Z,9.70
2019-05-07T00:53:32.863Z,8.93
2019-05-07T00:58:34.410Z,9.93
2019-05-07T01:03:36.784Z,10.07
2019-05-07T01:09:03.008Z,10.13
2019-05-07T01:14:04.389Z,8.50
2019-05-07T01:19:05.763Z,9.90
2019-05-07T01:24:12.247Z,10.90
2019-05-07T01:29:14.547Z,12.03
2019-05-07T01:34:59.705Z,13.70
2019-05-07T01:40:05.291Z,11.00
2019-05-07T01:45:12.915Z,11.10
2019-05-07T01:50:17.571Z,12.40
2019-05-07T01:55:22.559Z,11.37
2019-05-07T02:00:27.265Z,10.73
2019-05-07T02:05:48.407Z,11.47
2019-05-07T02:10:57.832Z,11.03
2019-05-07T02:16:05.126Z,10.33
2019-05-07T02:21:09.666Z,11.53
2019-05-07T02:26:14.217Z,11.33
2019-05-07T02:31:27.658Z,11.57
2019-05-07T02:36:34.073Z,13.17
2019-05-07T02:41:57.184Z,10.70
2019-05-07T02:47:15.357Z,11.83
2019-05-07T02:52:24.896Z,10.73
2019-05-07T02:57:28.074Z,14.77
2019-05-07T03:02:35.704Z,17.10
2019-05-07T03:07:43.454Z,15.87
2019-05-07T03:12:53.684Z,15.93
2019-05-07T03:17:57.390Z,17.20
2019-05-07T03:23:03.264Z,15.10
2019-05-07T03:28:05.854Z,14.87
2019-05-07T03:33:18.347Z,15.23
2019-05-07T03:38:22.643Z,14.87
2019-05-07T03:43:26.432Z,15.07
2019-05-07T03:48:46.287Z,14.77
2019-05-07T03:53:48.824Z,14.83
2019-05-07T03:58:53.373Z,16.57
2019-05-07T04:03:56.680Z,15.13
2019-05-07T04:08:57.977Z,15.33
2019-05-07T04:14:14.383Z,15.57
2019-05-07T04:19:18.931Z,14.83
2019-05-07T04:24:33.022Z,14.87
2019-05-07T04:29:39.067Z,14.77
2019-05-07T04:35:03.918Z,15.30
2019-05-07T04:40:15.412Z,15.43
2019-05-07T04:45:43.019Z,14.30
2019-05-07T04:50:48.602Z,15.10
2019-05-07T04:55:49.969Z,15.00
2019-05-07T05:00:57.306Z,14.90
2019-05-07T05:06:04.415Z,14.30
2019-05-07T05:11:14.055Z,13.53
2019-05-07T05:16:22.841Z,14.80
2019-05-07T05:21:44.388Z,14.47
2019-05-07T05:27:02.556Z,15.60
2019-05-07T05:32:05.180Z,14.03
2019-05-07T05:37:13.508Z,14.27
2019-05-07T05:42:34.614Z,14.23
2019-05-07T05:47:42.828Z,14.20
2019-05-07T05:53:03.842Z,14.30
2019-05-07T05:58:13.220Z,13.80
2019-05-07T06:03:52.582Z,14.37
2019-05-07T06:09:28.752Z,13.70
2019-05-07T06:14:47.607Z,13.63
2019-05-07T06:20:33.857Z,13.13
2019-05-07T06:25:39.558Z,13.03
2019-05-07T06:30:41.813Z,14.00
2019-05-07T06:35:47.348Z,12.77
2019-05-07T06:40:59.189Z,12.83
2019-05-07T06:46:02.552Z,13.60
2019-05-07T06:51:07.090Z,13.00
2019-05-07T06:56:14.332Z,13.70
2019-05-07T07:01:35.120Z,13.17
2019-05-07T07:06:47.230Z,12.23
2019-05-07T07:11:58.348Z,12.83
2019-05-07T07:17:05.434Z,12.87
2019-05-07T07:22:31.954Z,12.10
2019-05-07T07:27:33.520Z,12.33
2019-05-07T07:32:36.833Z,12.30
2019-05-07T07:37:44.099Z,10.70
2019-05-07T07:42:55.379Z,11.07
2019-05-07T07:48:04.844Z,9.90
2019-05-07T07:53:08.168Z,9.10
2019-05-07T07:58:22.074Z,8.83
2019-05-07T08:03:32.954Z,7.90
2019-05-07T08:08:34.369Z,7.60
2019-05-07T08:13:39.220Z,5.93
2019-05-07T08:18:43.574Z,5.60
2019-05-07T08:23:45.250Z,4.73
2019-05-07T08:28:49.782Z,4.40
2019-05-07T08:34:08.435Z,5.43
2019-05-07T08:39:13.184Z,5.23
2019-05-07T08:44:22.210Z,6.00
2019-05-07T08:49:37.008Z,5.53
2019-05-07T08:54:36.145Z,5.33
2019-05-07T08:59:58.373Z,5.33
2019-05-07T09:04:54.746Z,5.33
2019-05-07T09:09:56.034Z,4.67
2019-05-07T09:15:06.590Z,4.80
2019-05-07T09:20:16.478Z,4.43
2019-05-07T09:25:28.986Z,4.90
2019-05-07T09:30:48.423Z,5.17
2019-05-07T09:36:25.486Z,5.03
2019-05-07T09:41:36.873Z,4.77
2019-05-07T09:46:43.333Z,4.97
2019-05-07T09:51:57.005Z,5.00
2019-05-07T09:57:24.593Z,4.80
2019-05-07T10:02:12.249Z,4.97
2019-05-07T10:07:17.096Z,5.50
2019-05-07T10:12:29.672Z,4.90
2019-05-07T10:17:36.491Z,4.90
2019-05-07T10:22:37.977Z,5.43
2019-05-07T10:27:57.370Z,5.30
2019-05-07T10:32:58.647Z,5.20
2019-05-07T10:38:03.061Z,4.87
2019-05-07T10:43:06.397Z,5.10
2019-05-07T10:48:12.846Z,5.27
2019-05-07T10:53:20.147Z,4.50
2019-05-07T10:58:35.995Z,4.63
2019-05-07T11:03:38.400Z,4.87
2019-05-07T11:08:54.906Z,5.43
2019-05-07T11:13:56.277Z,5.10
2019-05-07T11:19:05.944Z,4.33
2019-05-07T11:24:13.253Z,4.27
2019-05-07T11:29:17.841Z,4.57
2019-05-07T11:34:19.154Z,4.10
2019-05-07T11:39:23.711Z,3.53
2019-05-07T11:44:26.913Z,3.73
2019-05-07T11:49:33.466Z,4.70
2019-05-07T11:54:42.152Z,3.53
2019-05-07T11:59:46.795Z,4.17
2019-05-07T12:04:52.736Z,4.80
2019-05-07T12:10:19.070Z,3.80
2019-05-07T12:15:24.350Z,3.67
2019-05-07T12:20:27.883Z,4.20
2019-05-07T12:25:29.163Z,3.27
2019-05-07T12:30:51.761Z,3.70
2019-05-07T12:36:25.691Z,3.80
2019-05-07T12:41:49.701Z,3.47
2019-05-07T12:46:52.479Z,3.97
2019-05-07T12:51:58.877Z,3.30
2019-05-07T12:57:03.475Z,3.90
2019-05-07T13:02:21.657Z,3.27
2019-05-07T13:07:15.256Z,3.50
2019-05-07T13:12:16.543Z,4.00
2019-05-07T13:17:26.147Z,4.03
2019-05-07T13:22:28.531Z,3.97
2019-05-07T13:27:33.076Z,3.70
2019-05-07T13:32:45.049Z,4.30
2019-05-07T13:37:48.344Z,4.30
2019-05-07T13:42:54.880Z,4.20
2019-05-07T13:48:26.674Z,4.37
2019-05-07T13:54:21.803Z,4.23
2019-05-07T13:59:26.586Z,3.77
2019-05-07T14:04:52.814Z,4.37
2019-05-07T14:10:22.010Z,3.80
2019-05-07T14:15:26.611Z,4.30
2019-05-07T14:20:33.168Z,4.30
2019-05-07T14:25:43.359Z,4.47
2019-05-07T14:30:54.044Z,4.47
2019-05-07T14:36:11.945Z,4.50
2019-05-07T14:41:25.643Z,4.87
2019-05-07T14:46:45.605Z,4.10
2019-05-07T14:51:42.707Z,3.87
2019-05-07T14:56:46.229Z,4.30
2019-05-07T15:02:16.321Z,3.70
2019-05-07T15:07:17.837Z,4.30
2019-05-07T15:13:02.245Z,6.07
2019-05-07T15:18:42.356Z,4.30
2019-05-07T15:23:44.155Z,3.60
2019-05-07T15:28:52.170Z,4.27
2019-05-07T15:33:53.963Z,4.10
2019-05-07T15:38:57.446Z,4.43
2019-05-07T15:44:02.706Z,4.47
2019-05-07T15:49:04.489Z,4.27
2019-05-07T15:54:27.654Z,3.37
2019-05-07T15:59:29.531Z,3.83
2019-05-07T16:04:49.339Z,4.20
2019-05-07T16:09:53.985Z,4.37
2019-05-07T16:15:18.113Z,3.30
2019-05-07T16:20:22.840Z,4.43
2019-05-07T16:25:24.318Z,3.90
2019-05-07T16:30:27.826Z,4.23
2019-05-07T16:35:29.115Z,3.87
2019-05-07T16:40:33.715Z,3.67
2019-05-07T16:45:53.332Z,3.40
2019-05-07T16:50:54.655Z,3.53
2019-05-07T16:56:05.181Z,4.07
2019-05-07T17:01:18.712Z,4.77
2019-05-07T17:06:47.894Z,4.00
2019-05-07T17:11:56.108Z,4.10
2019-05-07T17:16:57.406Z,3.80
2019-05-07T17:22:02.750Z,4.00
2019-05-07T17:27:04.069Z,4.47
2019-05-07T17:32:23.006Z,4.83
2019-05-07T17:37:24.497Z,4.93
2019-05-07T17:43:21.765Z,4.53
2019-05-07T17:48:29.168Z,4.13
2019-05-07T17:53:33.817Z,4.37
2019-05-07T17:58:35.092Z,4.40
2019-05-07T18:03:44.323Z,4.00
2019-05-07T18:08:53.578Z,4.00
2019-05-07T18:13:57.367Z,4.57
2019-05-07T18:19:12.595Z,4.70
2019-05-07T18:24:22.403Z,5.17
2019-05-07T18:29:29.752Z,4.33
2019-05-07T18:34:37.187Z,4.70
2019-05-07T18:39:38.816Z,6.20
2019-05-07T18:44:41.731Z,4.57
2019-05-07T18:49:46.433Z,5.03
2019-05-07T18:54:48.789Z,6.10
2019-05-07T18:59:50.283Z,5.40
2019-05-07T19:05:04.518Z,6.20
2019-05-07T19:10:36.796Z,5.80
2019-05-07T19:15:38.138Z,6.17
2019-05-07T19:20:39.414Z,6.70
2019-05-07T19:25:55.128Z,6.50
2019-05-07T19:31:01.746Z,6.43
2019-05-07T19:36:03.419Z,6.10
2019-05-07T19:41:18.984Z,5.90
2019-05-07T19:46:22.912Z,6.90
2019-05-07T19:51:24.437Z,7.37
2019-05-07T19:57:02.626Z,6.83
2019-05-07T20:02:09.080Z,6.40
2019-05-07T20:07:33.291Z,7.10
2019-05-07T20:12:42.894Z,6.97
2019-05-07T20:17:44.675Z,6.63
2019-05-07T20:22:46.286Z,6.90
2019-05-07T20:27:48.822Z,6.63
2019-05-07T20:32:56.137Z,7.57
2019-05-07T20:37:58.536Z,6.57
2019-05-07T20:43:05.850Z,7.37
2019-05-07T20:48:07.329Z,6.47
2019-05-07T20:53:47.244Z,7.77
2019-05-07T20:58:52.111Z,7.70
2019-05-07T21:04:01.935Z,8.10
2019-05-07T21:09:06.594Z,7.80
2019-05-07T21:14:12.015Z,7.27
2019-05-07T21:19:23.396Z,7.57
2019-05-07T21:24:33.103Z,6.63
2019-05-07T21:29:34.327Z,6.57
2019-05-07T21:34:35.776Z,6.70
2019-05-07T21:39:43.098Z,7.73
2019-05-07T21:44:52.836Z,7.70
2019-05-07T21:49:59.992Z,7.57
2019-05-07T21:55:07.587Z,8.47
2019-05-07T22:00:26.139Z,6.73
2019-05-07T22:05:27.951Z,7.00
2019-05-07T22:10:38.647Z,7.03
2019-05-07T22:15:45.836Z,7.63
2019-05-07T22:20:52.213Z,7.00
2019-05-07T22:26:22.848Z,7.13
2019-05-07T22:31:22.133Z,6.60
2019-05-07T22:36:25.598Z,6.67
2019-05-07T22:41:28.913Z,6.70
2019-05-07T22:46:36.649Z,7.90
2019-05-07T22:51:41.070Z,6.67
2019-05-07T22:56:55.841Z,6.67
2019-05-07T23:02:03.777Z,6.90
2019-05-07T23:07:05.147Z,6.80
2019-05-07T23:12:09.808Z,6.53
2019-05-07T23:17:12.591Z,7.27
2019-05-07T23:22:17.253Z,7.43
2019-05-07T23:27:22.511Z,7.10
2019-05-07T23:32:30.015Z,7.30
2019-05-07T23:37:34.546Z,7.10
2019-05-07T23:42:52.929Z,7.07
2019-05-07T23:47:59.303Z,7.57
2019-05-07T23:53:02.271Z,6.70
2019-05-07T23:58:07.154Z,7.97
